Portada
METAR-TAF:

METAR-TAF

Aeroports :

Locarno, Suïssa

latitud: 46-09-55N, longitud: 8-52-40E, altitud: 198 m

Observació

L'informe es va fer fa 37 minuts, a les 10:50 UTC
Vent 1 kt amb direcció variable
Temperatura 4°C
Humitat 75%
Pressió 1010 hPa
Visibilitat 10 km o més
Cel ennuvolat a una alçada de 7500 ft
Cel cobert a una alçada de 10000 ft

METAR: LSZL 141050Z VRB01KT 9999 BKN075 OVC100 04/00 Q1010 RMK BLU

Hora: 12:27 (11:27 UTC)

Pronòstic

L'informe es va fer fa 6 hores i 2 minuts, a les 05:25 UTC
Pronòstic vàlid del 14 a les 06 UTC al 14 a les 15 UTC
Vent 2 kt amb direcció variable
Visibilitat 10 km o més
sense núvols per sota de 1500 mi sense presència de cumulonimbus.
Evolucionant progressivament
l' 14 a les 07 UTC al 14 a les 10 UTC
Visibilitat 10 km o més
Cel ennuvolat a una alçada de 6000 ft

TAF: LSZL 140525Z 1406/1415 VRB02KT CAVOK BECMG 1407/1410 9999 BKN060

Observacions i pronòstics meteorològics de més de 4000 aeroports (METAR i TAF).

Les estacions disponibles són els punts grocs i vermells al mapa.

Posi el ratolí al punt desitjat per veure el nom de l'estació.

Feu clic per veure les observacions i els pronòstics meteorològics.

Per canviar el mapa: feu clic els botons verds amb una creu de color negre per apropar; al botó verd amb un guió per allunyar la imatge; o en les fletxes verdes per a mapes adjacents.


METAR-TAF: